createdAt,value
2023-04-06T00:03:26.517Z,18.44
2023-04-06T00:08:29.111Z,18.42
2023-04-06T00:13:31.070Z,18.44
2023-04-06T00:18:33.457Z,18.41
2023-04-06T00:23:35.608Z,18.42
2023-04-06T00:28:38.809Z,18.42
2023-04-06T00:33:40.995Z,18.44
2023-04-06T00:38:43.008Z,18.42
2023-04-06T00:43:45.209Z,18.36
2023-04-06T00:48:47.541Z,18.38
2023-04-06T00:53:49.758Z,18.38
2023-04-06T00:58:51.793Z,18.37
2023-04-06T01:03:54.371Z,18.36
2023-04-06T01:08:56.645Z,18.38
2023-04-06T01:13:58.611Z,18.36
2023-04-06T01:19:00.635Z,18.39
2023-04-06T01:24:02.602Z,18.38
2023-04-06T01:29:05.030Z,18.36
2023-04-06T01:34:07.519Z,18.36
2023-04-06T01:39:09.930Z,18.38
2023-04-06T01:44:12.069Z,18.37
2023-04-06T01:49:14.257Z,18.34
2023-04-06T01:54:16.370Z,18.37
2023-04-06T01:59:18.469Z,18.33
2023-04-06T02:04:20.879Z,18.33
2023-04-06T02:09:22.796Z,18.37
2023-04-06T02:14:27.243Z,18.36
2023-04-06T02:19:29.466Z,18.32
2023-04-06T02:24:31.487Z,18.33
2023-04-06T02:29:33.484Z,18.36
2023-04-06T02:34:35.750Z,18.36
2023-04-06T02:39:37.756Z,18.33
2023-04-06T02:44:39.811Z,18.35
2023-04-06T02:49:42.125Z,18.33
2023-04-06T02:54:44.284Z,18.35
2023-04-06T02:59:46.641Z,18.35
2023-04-06T03:04:48.804Z,18.33
2023-04-06T03:09:51.171Z,18.29
2023-04-06T03:14:53.021Z,18.32
2023-04-06T03:19:55.244Z,18.32
2023-04-06T03:24:57.166Z,18.31
2023-04-06T03:29:59.266Z,18.32
2023-04-06T03:35:01.622Z,18.32
2023-04-06T03:40:04.791Z,18.31
2023-04-06T03:45:07.228Z,18.32
2023-04-06T03:50:09.879Z,18.31
2023-04-06T03:55:11.831Z,18.29
2023-04-06T04:00:14.754Z,18.32
2023-04-06T04:05:16.813Z,18.35
2023-04-06T04:10:18.825Z,18.36
2023-04-06T04:15:20.858Z,18.32
2023-04-06T04:20:23.199Z,18.30
2023-04-06T04:25:25.289Z,18.32
2023-04-06T04:30:27.215Z,18.32
2023-04-06T04:35:29.264Z,18.32
2023-04-06T04:40:31.368Z,18.31
2023-04-06T04:45:33.398Z,18.36
2023-04-06T04:50:35.737Z,18.37
2023-04-06T04:55:37.847Z,18.33
2023-04-06T05:00:39.834Z,18.35
2023-04-06T05:05:41.754Z,18.29
2023-04-06T05:10:44.369Z,18.34
2023-04-06T05:15:46.563Z,18.32
2023-04-06T05:20:48.798Z,18.29
2023-04-06T05:25:50.755Z,18.28
2023-04-06T05:30:53.072Z,18.29
2023-04-06T05:35:55.219Z,18.29
2023-04-06T05:40:57.282Z,18.29
2023-04-06T05:45:59.399Z,18.28
2023-04-06T05:51:02.303Z,18.25
2023-04-06T05:56:04.791Z,18.28
2023-04-06T06:01:07.152Z,18.26
2023-04-06T06:06:09.246Z,18.29
2023-04-06T06:11:11.600Z,18.30
2023-04-06T06:16:13.458Z,18.33
2023-04-06T06:21:16.030Z,18.27
2023-04-06T06:26:18.370Z,18.29
2023-04-06T06:31:24.078Z,18.24
2023-04-06T06:36:27.177Z,18.24
2023-04-06T06:41:29.406Z,18.32
2023-04-06T06:46:31.392Z,18.26
2023-04-06T06:51:33.337Z,18.32
2023-04-06T06:56:37.210Z,18.24
2023-04-06T07:01:39.562Z,18.28
2023-04-06T07:06:42.037Z,18.29
2023-04-06T07:11:44.157Z,18.22
2023-04-06T07:16:46.718Z,18.33
2023-04-06T07:21:50.616Z,18.37
2023-04-06T07:26:53.012Z,18.33
2023-04-06T07:31:55.937Z,18.31
2023-04-06T07:36:58.049Z,18.32
2023-04-06T07:42:00.155Z,18.31
2023-04-06T07:47:02.423Z,18.31
2023-04-06T07:52:05.133Z,18.33
2023-04-06T07:57:07.221Z,18.32
2023-04-06T08:02:09.413Z,18.28
2023-04-06T08:07:11.802Z,18.37
2023-04-06T08:12:13.857Z,18.32
2023-04-06T08:17:15.797Z,18.37
2023-04-06T08:22:17.705Z,18.37
2023-04-06T08:27:19.685Z,18.36
2023-04-06T08:32:21.873Z,18.37
2023-04-06T08:37:24.198Z,18.37
2023-04-06T08:42:27.627Z,18.39
2023-04-06T08:47:29.830Z,18.38
2023-04-06T08:52:34.080Z,18.38
2023-04-06T08:57:37.700Z,18.36
2023-04-06T09:02:47.464Z,18.35
2023-04-06T09:07:49.508Z,18.34
2023-04-06T09:12:52.843Z,18.36
2023-04-06T09:17:55.885Z,18.38
2023-04-06T09:22:58.113Z,18.40
2023-04-06T09:28:05.231Z,18.38
2023-04-06T09:33:08.642Z,18.37
2023-04-06T09:38:13.551Z,18.35
2023-04-06T09:43:26.120Z,18.32
2023-04-06T09:48:32.108Z,18.46
2023-04-06T09:53:38.604Z,18.39
2023-04-06T09:58:44.248Z,18.43
2023-04-06T10:04:07.993Z,18.40
2023-04-06T10:09:11.089Z,18.40
2023-04-06T10:14:13.626Z,18.41
2023-04-06T10:19:22.061Z,18.36
2023-04-06T10:24:23.997Z,18.38
2023-04-06T10:29:26.174Z,18.28
2023-04-06T10:34:36.871Z,18.31
2023-04-06T10:39:47.828Z,18.36
2023-04-06T10:44:51.253Z,18.36
2023-04-06T10:49:53.322Z,18.35
2023-04-06T10:54:56.209Z,18.36
2023-04-06T10:59:58.456Z,18.35
2023-04-06T11:05:00.718Z,18.28
2023-04-06T11:15:08.503Z,18.29
2023-04-06T11:20:13.101Z,18.32
2023-04-06T11:25:15.208Z,18.36
2023-04-06T11:30:17.780Z,18.37
2023-04-06T11:35:25.578Z,18.31
2023-04-06T11:40:29.282Z,18.35
2023-04-06T11:45:41.247Z,18.36
2023-04-06T11:50:43.329Z,18.42
2023-04-06T11:55:48.294Z,18.40
2023-04-06T12:00:54.276Z,18.35
2023-04-06T12:05:57.155Z,18.37
2023-04-06T12:11:01.121Z,18.36
2023-04-06T12:16:03.186Z,18.37
2023-04-06T12:21:07.007Z,18.40
2023-04-06T12:26:13.166Z,18.39
2023-04-06T12:31:20.207Z,18.48
2023-04-06T12:36:22.586Z,18.60
2023-04-06T12:41:24.728Z,18.53
2023-04-06T12:46:27.473Z,18.51
2023-04-06T12:51:29.775Z,18.53
2023-04-06T12:56:32.588Z,18.58
2023-04-06T13:01:35.100Z,18.64
2023-04-06T13:06:37.538Z,18.67
2023-04-06T13:11:40.258Z,18.64
2023-04-06T13:16:42.581Z,18.59
2023-04-06T13:21:44.965Z,18.44
2023-04-06T13:26:47.437Z,18.40
2023-04-06T13:31:49.611Z,18.56
2023-04-06T13:36:52.044Z,18.52
2023-04-06T13:41:57.489Z,18.54
2023-04-06T13:46:59.718Z,18.60
2023-04-06T13:52:01.960Z,18.27
2023-04-06T13:57:04.342Z,18.22
2023-04-06T14:02:08.613Z,18.28
2023-04-06T14:07:11.680Z,18.37
2023-04-06T14:12:13.517Z,18.44
2023-04-06T14:17:15.502Z,18.43
2023-04-06T14:22:19.107Z,18.28
2023-04-06T14:27:21.391Z,18.39
2023-04-06T14:32:23.570Z,18.32
2023-04-06T14:37:25.532Z,18.43
2023-04-06T14:42:27.632Z,18.58
2023-04-06T14:47:29.635Z,18.64
2023-04-06T14:52:32.707Z,18.65
2023-04-06T14:57:35.397Z,18.64
2023-04-06T15:02:38.810Z,18.67
2023-04-06T15:07:41.304Z,18.67
2023-04-06T15:12:43.241Z,18.65
2023-04-06T15:17:45.251Z,18.68
2023-04-06T15:22:47.478Z,18.65
2023-04-06T15:27:49.599Z,18.68
2023-04-06T15:32:56.614Z,18.63
2023-04-06T15:37:58.826Z,18.64
2023-04-06T15:43:00.872Z,18.61
2023-04-06T15:48:03.761Z,18.54
2023-04-06T15:53:07.665Z,18.09
2023-04-06T15:58:09.716Z,18.07
2023-04-06T16:03:12.308Z,17.99
2023-04-06T16:08:16.684Z,18.10
2023-04-06T16:13:18.934Z,18.06
2023-04-06T16:18:21.359Z,18.14
2023-04-06T16:23:23.597Z,18.16
2023-04-06T16:28:26.101Z,18.25
2023-04-06T16:33:28.067Z,18.29
2023-04-06T16:38:36.014Z,18.28
2023-04-06T16:43:38.198Z,18.27
2023-04-06T16:48:40.414Z,18.25
2023-04-06T16:53:42.395Z,18.38
2023-04-06T16:58:45.716Z,18.45
2023-04-06T17:03:48.299Z,18.33
2023-04-06T17:08:51.475Z,18.44
2023-04-06T17:13:53.668Z,18.42
2023-04-06T17:18:55.758Z,18.51
2023-04-06T17:23:57.646Z,18.44
2023-04-06T17:28:59.835Z,18.55
2023-04-06T17:34:01.881Z,18.51
2023-04-06T17:39:04.331Z,18.40
2023-04-06T17:44:06.533Z,18.43
2023-04-06T17:49:09.730Z,18.47
2023-04-06T17:54:12.432Z,18.61
2023-04-06T17:59:14.398Z,18.57
2023-04-06T18:04:16.855Z,18.60
2023-04-06T18:09:18.867Z,18.58
2023-04-06T18:14:20.945Z,18.52
2023-04-06T18:19:23.280Z,18.46
2023-04-06T18:24:40.422Z,18.42
2023-04-06T18:29:45.765Z,18.49
2023-04-06T18:34:48.031Z,18.43
2023-04-06T18:39:50.616Z,18.55
2023-04-06T18:44:52.537Z,18.56
2023-04-06T18:49:54.676Z,18.47
2023-04-06T18:54:56.782Z,18.59
2023-04-06T18:59:58.853Z,18.51
2023-04-06T19:05:01.371Z,18.64
2023-04-06T19:10:07.027Z,18.68
2023-04-06T19:15:09.735Z,18.54
2023-04-06T19:20:12.072Z,18.54
2023-04-06T19:25:14.344Z,18.57
2023-04-06T19:30:16.815Z,18.56
2023-04-06T19:35:19.398Z,18.40
2023-04-06T19:40:21.519Z,18.20
2023-04-06T19:45:23.795Z,18.17
2023-04-06T19:50:25.831Z,18.20
2023-04-06T19:55:27.717Z,18.32
2023-04-06T20:00:29.952Z,18.40
2023-04-06T20:05:31.947Z,18.38
2023-04-06T20:10:34.411Z,18.42
2023-04-06T20:15:36.674Z,18.43
2023-04-06T20:20:38.829Z,18.37
2023-04-06T20:25:40.893Z,18.33
2023-04-06T20:30:43.080Z,18.37
2023-04-06T20:35:45.331Z,18.41
2023-04-06T20:40:47.430Z,18.38
2023-04-06T20:45:49.884Z,18.52
2023-04-06T20:50:53.026Z,18.75
2023-04-06T20:55:55.232Z,18.69
2023-04-06T21:00:57.591Z,18.84
2023-04-06T21:06:00.341Z,18.55
2023-04-06T21:11:02.917Z,18.46
2023-04-06T21:16:05.722Z,18.47
2023-04-06T21:21:07.730Z,18.74
2023-04-06T21:26:13.139Z,18.81
2023-04-06T21:31:16.973Z,18.80
2023-04-06T21:36:19.902Z,18.75
2023-04-06T21:41:22.334Z,18.75
2023-04-06T21:46:24.338Z,18.73
2023-04-06T21:51:26.253Z,18.71
2023-04-06T21:56:28.301Z,18.69
2023-04-06T22:01:30.188Z,18.71
2023-04-06T22:06:32.068Z,18.73
2023-04-06T22:11:34.135Z,18.74
2023-04-06T22:16:36.104Z,18.75
2023-04-06T22:21:38.313Z,18.69
2023-04-06T22:26:40.567Z,18.71
2023-04-06T22:31:42.818Z,18.71
2023-04-06T22:36:46.094Z,18.69
2023-04-06T22:41:48.035Z,18.70
2023-04-06T22:46:50.123Z,18.71
2023-04-06T22:51:52.341Z,18.67
2023-04-06T22:56:55.197Z,18.71
2023-04-06T23:01:57.595Z,18.65
2023-04-06T23:06:59.614Z,18.66
2023-04-06T23:12:02.402Z,18.65
2023-04-06T23:17:04.889Z,18.67
2023-04-06T23:22:07.080Z,18.67
2023-04-06T23:27:08.978Z,18.68
2023-04-06T23:32:11.265Z,18.63
2023-04-06T23:37:13.399Z,18.66
2023-04-06T23:42:15.477Z,18.62
2023-04-06T23:47:17.471Z,18.61
2023-04-06T23:52:19.695Z,18.66
2023-04-06T23:57:21.591Z,18.63
